Terminal Aerodrome Forecast
Issued by NWS Binghamton, NY

Home | Current Version | Previous Version | Text Only | Print | Product List | Glossary On
Versions: 1 2 3 4 5 6 7 8 9 10 11 12 13 14 15 16 17 18
000
FTUS41 KBGM 191200 AAB
TAFSYR
TAF AMD
KSYR 191259Z 1913/2012 30009KT P6SM FEW035 SCT200
      TEMPO 1913/1915 BKN015
     FM191500 34010G17KT P6SM BKN040
     FM191700 35012G18KT P6SM SCT050
     FM192000 36013G21KT P6SM SKC
     FM200000 02004KT P6SM SKC=

USA.gov is the U.S. government's official web portal to all federal, state and local government web resources and services.